KFDR/FDR METAR and TAF weather

Enter ICAO airport designator
Station Type Date Time Source
KFDR METAR 2020/10/26 12:01 UTC NOAA

KFDR 261201Z AUTO 01018G26KT 3SM TSRA BR SCT012 BKN037 OVC046 01/M01 A3015 RMK AO2 PK WND 02026/1158 LTG DSNT ALQDS P0003 T00061011


Station Type Date Time Source
KFDR Decoded METAR 2020/10/26 12:01 UTC NOAA

FREDERICK MUNICIPAL AIRPORT, OK, United States (KFDR) 34-21N 98-59W 377M
Oct 26, 2020 - 08:01 AM EDT / 2020.10.26 1201 UTC
Wind: from the N (010 degrees) at 21 MPH (18 KT) gusting to 30 MPH (26 KT):0
Visibility: 3 mile(s):0
Sky conditions: overcast
Weather: rain with thunder; mist; Lightning observed
Precipitation last hour: 0.03 inches
Temperature: 33.1 F (0.6 C)
Windchill: 21 F (-6 C):1
Dew Point: 30.0 F (-1.1 C)
Relative Humidity: 88%
Pressure (altimeter): 30.15 in. Hg (1020 hPa)
ob: KFDR 261201Z AUTO 01018G26KT 3SM TSRA BR SCT012 BKN037 OVC046 01/M01 A3015 RMK AO2 PK WND 02026/1158 LTG DSNT ALQDS P0003 T00061011
cycle: 12

Station Type Date Time Source
KFDR TAF UTC NOAA

Error!

Example: see airport list